• Join FlightAware (Why Join?)
  • Login
  • US Flag 
07:00AM EDT


 

Airport Tracker/Info


-or-


 

Live Flight TrackerFlight Track Log ✈ BER7688 ✈ 24-Apr-2013 ✈ LEPA / PMI - LEAS / OVD

Flight Track Log - Related Links

Times and Time Zones

All times are in EDT time to prevent confusion due to time zone crossing. See the BER7688 flight status page for this flight to view local times or setup timezone preferences in your user account.

Time Position Orientation Groundspeed Altitude Reporting Facility
EDT Latitude Longitude Course Direction KTS MPH feet Rate Location/Type
09:07AM 40.2374 1.4069 304° West  Level Estimated
09:08AM 40.2939 1.2947 303° West  Level Estimated
09:09AM 40.3502 1.1823 303° West  Level Estimated
09:10AM 40.4064 1.0697 303° West  Level Estimated
09:11AM 40.4626 0.9569 303° West  Level Estimated
09:12AM 40.5186 0.8440 303° West  Level Estimated
09:13AM 40.5745 0.7308 303° West  Level Estimated
09:14AM 40.6302 0.6175 303° West  Level Estimated
09:15AM 40.6859 0.5040 303° West  Level Estimated
09:16AM 40.7415 0.3903 303° West  Level Estimated
09:17AM 40.7970 0.2764 303° West  Level Estimated
09:18AM 40.8523 0.1623 303° West  Level Estimated
09:19AM 40.9076 0.0480 303° West  Level Estimated
09:20AM 40.9627 -0.0665 303° West  Level Estimated
09:21AM 41.0177 -0.1812 302° West  Level Estimated
09:22AM 41.0726 -0.2960 302° West  Level Estimated
09:23AM 41.1273 -0.4111 302° West  Level Estimated
09:24AM 41.1820 -0.5263 302° West  Level Estimated
09:25AM 41.2366 -0.6417 302° West  Level Estimated
09:26AM 41.2910 -0.7574 302° West  Level Estimated
09:27AM 41.3453 -0.8732 302° West  Level Estimated
09:28AM 41.3995 -0.9892 302° West  Level Estimated
09:29AM 41.4536 -1.1054 302° West  Level Estimated
09:30AM 41.5076 -1.2218 302° West  Level Estimated
09:31AM 41.5614 -1.3384 302° West  Level Estimated
09:32AM 41.6152 -1.4552 302° West  Level Estimated
09:33AM 41.6688 -1.5721 302° West  Level Estimated
09:34AM 41.7223 -1.6893 301° West  Level Estimated
09:35AM 41.7757 -1.8067 301° West  Level Estimated
09:36AM 41.8289 -1.9243 301° West  Level Estimated
09:37AM 41.8821 -2.0420 301° West  Level Estimated
09:38AM 41.9351 -2.1600 301° West  Level Estimated
09:39AM 41.9880 -2.2781 301° West  Level Estimated
09:40AM 42.0408 -2.3965 301° West  Level Estimated
09:41AM 42.0934 -2.5150 301° West  Level Estimated
09:42AM 42.1459 -2.6338 301° West  Level Estimated
09:43AM 42.1983 -2.7527 301° West  Level Estimated
09:44AM 42.2506 -2.8719 301° West  Level Estimated
09:45AM 42.3028 -2.9912 301° West  Level Estimated
09:46AM 42.3548 -3.1107 301° West  Level Estimated
09:47AM 42.4067 -3.2305 300° West  Level Estimated
09:48AM 42.4585 -3.3504 300° West  Level Estimated
09:49AM 42.5102 -3.4705 300° West  Level Estimated
09:50AM 42.5617 -3.5909 300° West  Level Estimated
09:51AM 42.6131 -3.7114 300° West  Level Estimated
09:52AM 42.6644 -3.8321 300° West  Level Estimated
09:53AM 42.7156 -3.9530 300° West  Level Estimated
09:54AM 42.7666 -4.0741 300° West  Level Estimated
09:55AM 42.8175 -4.1954 300° West  Level Estimated
09:56AM 42.8683 -4.3170 300° West  Level Estimated
09:57AM 42.9189 -4.4387 300° West  Level Estimated
09:58AM 42.9695 -4.5606 300° West  Level Estimated
09:59AM 43.0198 -4.6827 299° West  Level Estimated
10:00AM 43.0701 -4.8050 299° West  Level Estimated
10:01AM 43.1202 -4.9276 299° West  Level Estimated
10:02AM 43.1702 -5.0503 299° West  Level Estimated
10:03AM 43.2201 -5.1732 299° West  Level Estimated
10:04AM 43.2698 -5.2963 299° West  Level Estimated
10:05AM 43.3194 -5.4197 299° West  Level Estimated
10:06AM 43.3689 -5.5432 299° West  Level Estimated
10:07AM 43.4182 -5.6669 299° West  Level Estimated
10:08AM 43.4674 -5.7909 299° West  Level Estimated
10:09AM 43.5165 -5.9150 299° West  Level Estimated
10:10AM 43.5636 -6.0346 299° West  Level Estimated
10:11AM 43.5636 -6.0346 206° Southwest  Level Estimated
10:12AM 43.5636 -6.0346 206° Southwest  Level Estimated
10:13AM 43.5636 -6.0346 206° Southwest  Level Estimated
10:14AM 43.5636 -6.0346 206° Southwest  Level Estimated
10:15AM 43.5636 -6.0346 206° Southwest  Level Estimated
10:16AM 43.5636 -6.0346 206° Southwest  Level Estimated
10:17AM 43.5636 -6.0346 206° Southwest  Level Estimated
10:18AM 43.5636 -6.0346 206° Southwest  Level Estimated
10:19AM 43.5636 -6.0346 206° Southwest  Level Estimated
10:20AM 43.5636 -6.0346 206° Southwest  Level Estimated
10:21AM 43.5636 -6.0346 206° Southwest  Level Estimated
10:22AM 43.5636 -6.0346 206° Southwest  Level Estimated
10:23AM 43.5636 -6.0346 206° Southwest  Level Estimated
10:24AM 43.5636 -6.0346 206° Southwest  Level Estimated
10:25AM 43.5636 -6.0346 206° Southwest  Level Estimated